createdAt,value
2023-03-17T00:00:34.896Z,47.03
2023-03-17T00:01:34.913Z,46.94
2023-03-17T00:02:35.003Z,47.05
2023-03-17T00:03:35.106Z,47.09
2023-03-17T00:04:35.153Z,47.61
2023-03-17T00:05:35.270Z,48.28
2023-03-17T00:06:35.373Z,48.46
2023-03-17T00:07:35.426Z,48.40
2023-03-17T00:08:35.495Z,45.99
2023-03-17T00:09:35.572Z,44.95
2023-03-17T00:10:35.661Z,43.96
2023-03-17T00:11:35.793Z,43.58
2023-03-17T00:12:35.868Z,45.79
2023-03-17T00:13:35.952Z,46.92
2023-03-17T00:14:36.027Z,47.60
2023-03-17T00:15:36.132Z,47.65
2023-03-17T00:16:36.210Z,46.31
2023-03-17T00:17:36.298Z,46.37
2023-03-17T00:18:36.411Z,44.14
2023-03-17T00:19:36.512Z,43.73
2023-03-17T00:20:36.618Z,43.52
2023-03-17T00:21:36.696Z,43.65
2023-03-17T00:22:36.782Z,43.17
2023-03-17T00:23:36.876Z,42.77
2023-03-17T00:24:36.937Z,43.15
2023-03-17T00:25:37.069Z,42.50
2023-03-17T00:26:37.059Z,42.75
2023-03-17T00:27:37.127Z,42.17
2023-03-17T00:28:37.209Z,41.30
2023-03-17T00:29:37.262Z,40.72
2023-03-17T00:30:37.369Z,39.75
2023-03-17T00:31:37.508Z,39.39
2023-03-17T00:32:37.566Z,38.43
2023-03-17T00:33:37.633Z,38.31
2023-03-17T00:34:37.687Z,38.87
2023-03-17T00:35:37.845Z,38.48
2023-03-17T00:36:37.871Z,39.03
2023-03-17T00:37:37.955Z,40.26
2023-03-17T00:38:38.050Z,40.71
2023-03-17T00:39:38.204Z,41.21
2023-03-17T00:40:38.204Z,41.89
2023-03-17T00:49:38.717Z,42.84
2023-03-17T00:50:38.749Z,43.02
2023-03-17T00:51:38.756Z,42.41
2023-03-17T00:52:38.783Z,43.55
2023-03-17T00:53:38.820Z,44.53
2023-03-17T00:54:38.835Z,43.34
2023-03-17T00:55:38.881Z,41.93
2023-03-17T00:56:38.920Z,40.14
2023-03-17T00:57:38.965Z,40.00
2023-03-17T00:58:38.983Z,40.03
2023-03-17T00:59:39.069Z,39.23
2023-03-17T01:00:39.140Z,39.15
2023-03-17T01:01:39.262Z,39.68
2023-03-17T01:02:39.234Z,39.57
2023-03-17T01:03:39.267Z,39.17
2023-03-17T01:04:39.286Z,39.51
2023-03-17T01:05:39.324Z,40.87
2023-03-17T01:06:39.328Z,39.45
2023-03-17T01:07:39.347Z,38.41
2023-03-17T01:08:39.380Z,37.71
2023-03-17T01:09:39.396Z,37.70
2023-03-17T01:10:39.424Z,38.20
2023-03-17T01:11:39.469Z,38.28
2023-03-17T01:12:39.529Z,38.61
2023-03-17T01:13:39.578Z,39.65
2023-03-17T01:14:39.633Z,42.43
2023-03-17T01:15:39.727Z,41.15
2023-03-17T01:16:39.846Z,41.15
2023-03-17T01:17:39.851Z,40.75
2023-03-17T01:18:39.994Z,40.98
2023-03-17T01:19:39.986Z,40.76
2023-03-17T01:20:40.061Z,40.79
2023-03-17T01:21:40.101Z,41.57
2023-03-17T01:22:40.132Z,41.85
2023-03-17T01:23:40.184Z,42.01
2023-03-17T01:24:40.230Z,42.43
2023-03-17T01:25:40.280Z,42.75
2023-03-17T01:26:40.373Z,42.58
2023-03-17T01:27:40.383Z,42.87
2023-03-17T01:28:40.439Z,43.65
2023-03-17T01:29:40.488Z,43.86
2023-03-17T01:30:40.549Z,43.54
2023-03-17T01:31:40.638Z,42.84
2023-03-17T01:32:40.731Z,42.83
2023-03-17T01:33:40.788Z,42.72
2023-03-17T01:34:40.886Z,42.60
2023-03-17T01:35:40.982Z,42.62
2023-03-17T01:36:41.077Z,42.54
2023-03-17T01:37:41.162Z,42.51
2023-03-17T01:38:41.255Z,42.63
2023-03-17T01:39:41.335Z,41.93
2023-03-17T01:40:41.406Z,41.81
2023-03-17T01:41:41.527Z,43.60
2023-03-17T01:42:41.661Z,45.63
2023-03-17T01:43:41.730Z,45.23
2023-03-17T01:44:41.815Z,43.39
2023-03-17T01:45:42.031Z,42.33
2023-03-17T01:46:42.270Z,41.70
2023-03-17T01:47:42.497Z,41.29
2023-03-17T01:48:42.731Z,39.73
2023-03-17T01:49:42.980Z,40.39
2023-03-17T01:50:43.223Z,43.20
2023-03-17T01:51:43.473Z,41.80
2023-03-17T01:52:43.719Z,41.64
2023-03-17T01:53:43.926Z,42.79
2023-03-17T01:54:44.171Z,44.01
2023-03-17T01:55:44.408Z,43.31
2023-03-17T01:56:44.647Z,43.53
2023-03-17T01:57:44.860Z,42.01
2023-03-17T01:58:45.089Z,44.18
2023-03-17T01:59:45.331Z,45.39
2023-03-17T02:00:45.623Z,45.79
2023-03-17T02:01:45.806Z,46.01
2023-03-17T02:02:46.028Z,43.79
2023-03-17T02:03:46.287Z,42.39
2023-03-17T02:04:46.485Z,43.77
2023-03-17T02:05:46.702Z,45.53
2023-03-17T02:06:57.529Z,46.50
2023-03-17T02:07:47.984Z,46.28
2023-03-17T02:08:47.034Z,45.89
2023-03-17T02:09:47.089Z,45.47
2023-03-17T02:10:47.133Z,45.06
2023-03-17T02:11:47.190Z,45.07
2023-03-17T02:12:47.256Z,44.92
2023-03-17T02:13:47.290Z,44.97
2023-03-17T02:14:47.334Z,44.82
2023-03-17T02:20:48.115Z,40.62
2023-03-17T02:21:48.346Z,43.83
2023-03-17T02:22:48.586Z,44.68
2023-03-17T02:23:48.840Z,44.68
2023-03-17T02:24:49.078Z,46.39
2023-03-17T02:25:49.325Z,46.01
2023-03-17T02:26:49.570Z,42.87
2023-03-17T02:27:49.787Z,41.65
2023-03-17T02:28:50.002Z,41.11
2023-03-17T02:29:50.207Z,42.95
2023-03-17T02:30:50.428Z,42.86
2023-03-17T02:31:50.597Z,42.74
2023-03-17T02:32:50.938Z,41.44
2023-03-17T02:33:51.064Z,40.61
2023-03-17T02:34:51.268Z,40.59
2023-03-17T02:35:51.520Z,40.53
2023-03-17T02:36:51.799Z,39.12
2023-03-17T02:37:51.969Z,39.92
2023-03-17T02:38:52.119Z,44.18
2023-03-17T02:39:52.380Z,43.49
2023-03-17T02:40:52.610Z,43.05
2023-03-17T02:41:52.841Z,44.97
2023-03-17T02:42:53.093Z,45.85
2023-03-17T02:43:53.345Z,44.72
2023-03-17T02:44:53.566Z,41.38
2023-03-17T02:45:53.861Z,40.94
2023-03-17T02:46:54.043Z,40.99
2023-03-17T02:47:54.278Z,42.04
2023-03-17T02:48:54.526Z,41.17
2023-03-17T02:49:54.749Z,41.20
2023-03-17T03:03:58.112Z,43.51
2023-03-17T03:04:58.351Z,42.27
2023-03-17T03:05:58.594Z,42.37
2023-03-17T03:06:58.845Z,43.21
2023-03-17T03:47:08.191Z,45.79
2023-03-17T03:48:08.436Z,46.14
2023-03-17T03:49:08.637Z,46.08
2023-03-17T03:50:08.888Z,44.85
2023-03-17T03:51:09.098Z,44.12
2023-03-17T03:52:09.360Z,43.77
2023-03-17T03:53:09.587Z,42.35
2023-03-17T03:54:09.827Z,41.81
2023-03-17T03:55:10.061Z,44.35
2023-03-17T03:56:10.294Z,44.03
2023-03-17T03:57:10.623Z,44.61
2023-03-17T03:58:10.745Z,45.29
2023-03-17T03:59:10.972Z,44.83
2023-03-17T04:00:11.193Z,45.25
2023-03-17T04:01:11.431Z,45.83
2023-03-17T04:02:11.684Z,44.47
2023-03-17T04:03:11.982Z,43.97
2023-03-17T04:04:12.152Z,44.05
2023-03-17T04:05:12.389Z,45.61
2023-03-17T04:06:12.637Z,45.56
2023-03-17T04:07:12.886Z,45.27
2023-03-17T04:08:13.114Z,45.22
2023-03-17T04:09:13.377Z,44.75
2023-03-17T04:10:13.627Z,44.36
2023-03-17T04:11:13.894Z,44.09
2023-03-17T05:11:28.160Z,45.38
2023-03-17T05:12:28.396Z,45.11
2023-03-17T05:13:28.623Z,45.04
2023-03-17T05:14:28.858Z,45.33
2023-03-17T05:15:29.075Z,45.89
2023-03-17T05:16:29.343Z,45.64
2023-03-17T05:59:38.141Z,44.17
2023-03-17T06:00:38.395Z,43.92
2023-03-17T06:01:38.629Z,43.57
2023-03-17T06:02:38.875Z,42.78
2023-03-17T06:03:39.164Z,42.61
2023-03-17T06:04:39.334Z,42.92
2023-03-17T06:05:39.569Z,43.45
2023-03-17T06:06:39.828Z,45.34
2023-03-17T06:07:51.535Z,45.70
2023-03-17T06:09:40.080Z,42.81
2023-03-17T06:10:40.121Z,43.26
2023-03-17T06:11:40.161Z,44.97
2023-03-17T06:12:40.210Z,45.70
2023-03-17T06:13:40.261Z,45.86
2023-03-17T06:14:40.318Z,44.33
2023-03-17T06:15:40.390Z,42.73
2023-03-17T06:16:40.450Z,42.26
2023-03-17T06:17:40.452Z,43.02
2023-03-17T06:18:40.485Z,44.05
2023-03-17T06:19:40.697Z,45.05
2023-03-17T06:20:40.600Z,45.91
2023-03-17T06:21:40.740Z,46.19
2023-03-17T06:23:40.956Z,46.67
2023-03-17T07:09:48.171Z,41.67
2023-03-17T07:10:48.400Z,41.79
2023-03-17T07:11:48.633Z,41.05
2023-03-17T07:12:48.823Z,40.95
2023-03-17T07:13:49.042Z,38.89
2023-03-17T07:14:49.852Z,41.35
2023-03-17T07:15:49.386Z,42.79
2023-03-17T07:16:49.441Z,41.93
2023-03-17T07:17:49.478Z,41.62
2023-03-17T07:18:49.524Z,41.47
2023-03-17T07:19:49.577Z,42.29
2023-03-17T07:20:50.323Z,43.11
2023-03-17T07:21:49.733Z,40.67
2023-03-17T07:22:50.332Z,41.49
2023-03-17T07:23:49.921Z,42.84
2023-03-17T07:24:49.961Z,42.32
2023-03-17T07:25:50.844Z,42.26
2023-03-17T07:26:50.094Z,43.27
2023-03-17T07:27:50.175Z,43.52
2023-03-17T07:28:50.229Z,43.59
2023-03-17T07:29:50.350Z,43.63
2023-03-17T07:30:50.392Z,43.92
2023-03-17T07:31:50.514Z,43.94
2023-03-17T07:32:50.564Z,43.86
2023-03-17T07:33:50.582Z,43.71
2023-03-17T07:34:50.632Z,43.93
2023-03-17T07:35:50.753Z,44.17
2023-03-17T07:36:50.799Z,44.18
2023-03-17T07:37:50.887Z,43.92
2023-03-17T07:38:50.930Z,43.00
2023-03-17T07:39:51.022Z,42.81
2023-03-17T07:40:51.075Z,43.61
2023-03-17T07:41:51.135Z,43.57
2023-03-17T07:42:51.250Z,43.13
2023-03-17T07:43:51.311Z,43.27
2023-03-17T07:44:51.413Z,43.29
2023-03-17T07:45:51.578Z,43.31
2023-03-17T07:46:51.622Z,43.47
2023-03-17T07:47:51.680Z,43.36
2023-03-17T07:48:51.755Z,43.61
2023-03-17T07:49:51.852Z,43.48
2023-03-17T07:50:51.939Z,43.57
2023-03-17T07:51:52.009Z,43.46
2023-03-17T07:52:52.112Z,42.95
2023-03-17T07:53:52.182Z,42.88
2023-03-17T07:54:52.253Z,42.97
2023-03-17T07:55:52.368Z,42.13
2023-03-17T07:56:52.447Z,41.90
2023-03-17T07:57:52.572Z,41.10
2023-03-17T07:58:52.525Z,40.16
2023-03-17T07:59:52.580Z,40.10
2023-03-17T08:00:52.698Z,40.71
2023-03-17T08:03:52.960Z,40.88
2023-03-17T08:04:52.905Z,39.86
2023-03-17T08:45:58.362Z,33.60
2023-03-17T09:03:59.355Z,33.52
2023-03-17T09:51:58.156Z,28.59
2023-03-17T09:52:58.404Z,28.48
2023-03-17T09:53:58.561Z,28.18
2023-03-17T09:54:58.714Z,28.58
2023-03-17T09:55:59.002Z,28.38
2023-03-17T09:56:59.172Z,28.65
2023-03-17T10:39:01.057Z,27.20
2023-03-17T10:42:02.782Z,26.96
2023-03-17T10:56:01.700Z,25.62
2023-03-17T11:00:01.314Z,25.20
2023-03-17T11:01:01.318Z,24.97
2023-03-17T11:02:01.134Z,25.37
2023-03-17T11:03:01.011Z,25.87
2023-03-17T11:04:00.963Z,25.60
2023-03-17T11:05:00.875Z,25.93
2023-03-17T11:06:00.885Z,25.88
2023-03-17T11:07:01.897Z,25.35
2023-03-17T11:08:00.963Z,24.82
2023-03-17T11:09:00.935Z,24.74
2023-03-17T11:10:00.864Z,24.64
2023-03-17T11:11:00.929Z,24.82
2023-03-17T11:12:00.994Z,24.85
2023-03-17T11:13:01.232Z,24.60
2023-03-17T11:14:01.360Z,24.75
2023-03-17T11:15:01.622Z,24.31
2023-03-17T11:16:02.419Z,24.84
2023-03-17T11:17:01.730Z,25.00
2023-03-17T11:18:01.606Z,24.78
2023-03-17T11:19:01.538Z,24.63
2023-03-17T11:20:01.564Z,24.49
2023-03-17T11:21:01.715Z,24.49
2023-03-17T11:22:01.866Z,24.42
2023-03-17T11:23:02.163Z,24.58
2023-03-17T11:24:02.299Z,24.87
2023-03-17T11:25:02.480Z,24.61
2023-03-17T11:26:02.705Z,24.51
2023-03-17T11:27:02.857Z,24.41
2023-03-17T11:28:03.075Z,24.13
2023-03-17T11:29:03.260Z,24.05
2023-03-17T11:30:03.420Z,23.92
2023-03-17T11:31:03.598Z,23.86
2023-03-17T11:32:03.831Z,23.74
2023-03-17T11:55:08.065Z,22.95
2023-03-17T11:56:08.176Z,22.69
2023-03-17T11:57:08.426Z,22.88
2023-03-17T11:58:08.553Z,22.97
2023-03-17T11:59:08.891Z,22.61
2023-03-17T12:00:08.949Z,22.44
2023-03-17T12:01:09.160Z,22.31
2023-03-17T12:02:09.262Z,22.38
2023-03-17T12:03:09.480Z,22.57
2023-03-17T12:04:09.669Z,22.49
2023-03-17T12:05:09.790Z,22.47
2023-03-17T12:06:09.938Z,22.17
2023-03-17T12:07:10.137Z,22.55
2023-03-17T12:08:10.331Z,22.62
2023-03-17T12:09:10.516Z,22.48
2023-03-17T12:10:10.677Z,22.17
2023-03-17T12:11:10.836Z,22.28
2023-03-17T12:12:11.057Z,22.22
2023-03-17T12:13:11.285Z,22.45
2023-03-17T12:14:11.453Z,22.43
2023-03-17T12:15:11.638Z,22.61
2023-03-17T12:52:18.028Z,20.52
2023-03-17T12:53:18.184Z,20.68
2023-03-17T12:54:18.442Z,20.65
2023-03-17T12:55:18.592Z,20.80
2023-03-17T12:56:18.806Z,20.74
2023-03-17T12:57:18.985Z,20.64
2023-03-17T12:58:19.086Z,20.87
2023-03-17T12:59:19.331Z,20.73
2023-03-17T13:00:19.449Z,20.75
2023-03-17T13:01:19.670Z,20.78
2023-03-17T13:02:19.829Z,20.85
2023-03-17T13:03:20.145Z,20.76
2023-03-17T13:04:20.130Z,20.80
2023-03-17T13:05:20.341Z,20.69
2023-03-17T13:06:20.474Z,20.82
2023-03-17T13:07:20.721Z,20.37
2023-03-17T13:08:20.852Z,20.75
2023-03-17T13:09:21.003Z,20.78
2023-03-17T13:10:21.163Z,20.52
2023-03-17T13:11:21.310Z,20.71
2023-03-17T13:52:28.200Z,20.63
2023-03-17T13:53:28.337Z,20.98
2023-03-17T13:54:28.446Z,20.57
2023-03-17T13:55:28.750Z,20.50
2023-03-17T13:56:28.801Z,20.54
2023-03-17T13:57:28.952Z,20.42
2023-03-17T13:58:29.130Z,20.39
2023-03-17T13:59:29.307Z,20.56
2023-03-17T14:00:29.419Z,20.55
2023-03-17T14:01:29.645Z,20.53
2023-03-17T14:02:29.753Z,20.56
2023-03-17T14:03:29.905Z,20.51
2023-03-17T14:04:30.146Z,20.61
2023-03-17T14:05:30.614Z,20.77
2023-03-17T14:53:38.101Z,21.63
2023-03-17T14:54:38.268Z,21.48
2023-03-17T14:55:38.415Z,21.57
2023-03-17T14:56:38.649Z,21.77
2023-03-17T14:57:38.795Z,21.90
2023-03-17T15:01:39.589Z,21.98
2023-03-17T15:29:39.535Z,22.97
2023-03-17T15:30:47.237Z,23.17
2023-03-17T15:32:39.151Z,23.24
2023-03-17T15:33:38.960Z,22.97
2023-03-17T15:34:38.821Z,23.15
2023-03-17T15:35:38.706Z,23.21
2023-03-17T15:36:38.552Z,23.57
2023-03-17T15:37:38.410Z,23.79
2023-03-17T15:38:38.264Z,23.57
2023-03-17T15:39:38.129Z,23.71
2023-03-17T15:40:38.000Z,23.84
2023-03-17T17:12:38.037Z,27.35
2023-03-17T17:13:38.213Z,27.58
2023-03-17T17:14:38.500Z,27.47
2023-03-17T17:15:38.641Z,27.48
2023-03-17T17:16:38.880Z,27.31
2023-03-17T17:17:39.045Z,27.39
2023-03-17T17:18:39.218Z,27.51
2023-03-17T17:19:39.427Z,27.54
2023-03-17T17:20:39.658Z,27.60
2023-03-17T17:21:39.877Z,27.51
2023-03-17T17:22:40.059Z,27.57
2023-03-17T17:23:40.234Z,27.48
2023-03-17T17:24:40.405Z,27.45
2023-03-17T17:25:40.601Z,27.75
2023-03-17T17:26:40.809Z,27.72
2023-03-17T17:27:41.014Z,27.64
2023-03-17T17:28:41.242Z,27.64
2023-03-17T17:29:41.435Z,27.68
2023-03-17T17:30:41.670Z,27.80
2023-03-17T17:31:41.901Z,27.96
2023-03-17T17:32:42.152Z,27.74
2023-03-17T17:33:42.225Z,27.76
2023-03-17T17:34:42.421Z,27.90
2023-03-17T17:35:42.649Z,27.88
2023-03-17T17:36:42.837Z,28.09
2023-03-17T17:37:43.054Z,28.02
2023-03-17T17:38:43.243Z,28.34
2023-03-17T17:39:43.418Z,28.19
2023-03-17T17:40:43.631Z,27.82
2023-03-17T17:41:43.817Z,27.95
2023-03-17T17:42:43.969Z,27.83
2023-03-17T17:43:44.233Z,27.96
2023-03-17T17:44:44.349Z,27.95
2023-03-17T17:45:44.533Z,27.90
2023-03-17T17:46:44.755Z,28.11
2023-03-17T17:47:45.484Z,28.32
2023-03-17T17:48:44.900Z,28.07
2023-03-17T17:49:44.836Z,28.31
2023-03-17T17:50:44.784Z,28.25
2023-03-17T17:51:44.689Z,28.32
2023-03-17T17:52:46.538Z,28.38
2023-03-17T17:53:44.724Z,28.44
2023-03-17T17:54:44.654Z,28.42
2023-03-17T17:55:44.617Z,28.55
2023-03-17T17:56:44.643Z,28.62
2023-03-17T17:57:44.776Z,28.56
2023-03-17T17:58:44.956Z,28.80
2023-03-17T17:59:45.176Z,28.73
2023-03-17T18:00:45.340Z,28.62
2023-03-17T18:01:45.493Z,28.60
2023-03-17T18:02:45.699Z,28.64
2023-03-17T18:14:48.080Z,29.22
2023-03-17T18:26:48.770Z,29.61
2023-03-17T18:27:48.704Z,29.58
2023-03-17T18:28:48.627Z,29.57
2023-03-17T18:29:48.552Z,29.76
2023-03-17T18:30:48.494Z,29.95
2023-03-17T18:31:48.472Z,30.13
2023-03-17T18:32:48.378Z,30.45
2023-03-17T18:33:48.327Z,30.28
2023-03-17T18:34:48.312Z,30.32
2023-03-17T18:35:48.307Z,30.44
2023-03-17T18:36:48.259Z,30.43
2023-03-17T18:37:48.220Z,30.27
2023-03-17T18:38:48.174Z,30.19
2023-03-17T18:39:58.554Z,30.43
2023-03-17T18:40:49.341Z,30.42
2023-03-17T18:41:48.268Z,30.45
2023-03-17T18:42:48.217Z,30.41
2023-03-17T18:43:48.148Z,30.19
2023-03-17T18:44:48.082Z,30.27
2023-03-17T18:45:48.029Z,30.35
2023-03-17T18:57:48.046Z,31.58
2023-03-17T18:58:48.174Z,31.64
2023-03-17T18:59:48.446Z,31.49
2023-03-17T19:00:48.654Z,31.40
2023-03-17T19:01:48.909Z,31.59
2023-03-17T19:02:49.117Z,31.38
2023-03-17T19:03:49.352Z,31.39
2023-03-17T19:04:50.498Z,31.07
2023-03-17T19:05:49.478Z,31.26
2023-03-17T19:06:49.437Z,31.19
2023-03-17T19:07:49.404Z,31.21
2023-03-17T19:08:49.370Z,31.30
2023-03-17T19:09:49.305Z,31.42
2023-03-17T19:10:49.256Z,31.82
2023-03-17T19:11:49.212Z,31.90
2023-03-17T19:12:49.178Z,32.00
2023-03-17T19:13:49.375Z,32.01
2023-03-17T19:14:49.561Z,32.08
2023-03-17T19:15:49.733Z,32.92
2023-03-17T19:16:49.960Z,32.54
2023-03-17T19:17:50.065Z,32.61
2023-03-17T19:18:50.322Z,32.06
2023-03-17T19:19:50.478Z,32.05
2023-03-17T19:20:50.624Z,32.33
2023-03-17T19:21:50.803Z,32.29
2023-03-17T19:22:50.998Z,32.80
2023-03-17T19:23:51.251Z,32.79
2023-03-17T19:24:51.440Z,32.76
2023-03-17T19:25:51.649Z,32.73
2023-03-17T19:26:51.832Z,32.48
2023-03-17T19:27:52.022Z,32.27
2023-03-17T19:28:52.199Z,32.41
2023-03-17T19:29:52.376Z,32.30
2023-03-17T19:30:52.629Z,32.30
2023-03-17T19:31:52.866Z,32.45
2023-03-17T19:32:53.067Z,32.55
2023-03-17T19:33:53.189Z,32.30
2023-03-17T19:34:53.404Z,32.36
2023-03-17T19:36:53.824Z,32.72
2023-03-17T19:58:58.077Z,33.51
2023-03-17T19:59:58.223Z,33.05
2023-03-17T20:00:58.380Z,32.83
2023-03-17T20:01:58.754Z,33.20
2023-03-17T20:02:58.866Z,33.11
2023-03-17T20:03:59.132Z,32.90
2023-03-17T20:04:59.210Z,32.84
2023-03-17T20:05:59.434Z,32.90
2023-03-17T20:06:59.563Z,32.78
2023-03-17T20:07:59.774Z,32.72
2023-03-17T20:08:59.937Z,32.95
2023-03-17T20:12:00.613Z,35.13
2023-03-17T20:51:08.157Z,36.72
2023-03-17T20:52:08.303Z,36.39
2023-03-17T20:53:08.524Z,35.51
2023-03-17T20:54:08.750Z,35.29
2023-03-17T20:55:08.960Z,35.33
2023-03-17T21:59:18.046Z,37.97
2023-03-17T22:00:18.225Z,37.63
2023-03-17T22:01:18.538Z,37.34
2023-03-17T22:02:18.636Z,37.29
2023-03-17T22:03:18.900Z,37.22
2023-03-17T22:04:19.049Z,38.01
2023-03-17T22:05:19.281Z,38.81
2023-03-17T22:06:19.427Z,38.23
2023-03-17T22:07:19.646Z,37.40
2023-03-17T22:08:19.915Z,38.09
2023-03-17T22:09:20.145Z,37.74
2023-03-17T22:47:28.038Z,42.83
2023-03-17T22:48:28.272Z,43.23
2023-03-17T22:49:28.457Z,43.45
2023-03-17T22:50:28.606Z,43.21
2023-03-17T22:51:28.757Z,43.11
2023-03-17T22:52:28.975Z,41.28
2023-03-17T22:53:29.200Z,40.42
2023-03-17T22:54:29.339Z,40.01
2023-03-17T22:55:29.556Z,41.43
2023-03-17T22:57:29.897Z,40.70
2023-03-17T22:58:30.105Z,40.52
2023-03-17T22:59:30.325Z,41.20
2023-03-17T23:00:30.827Z,41.52
2023-03-17T23:35:38.153Z,39.06
2023-03-17T23:36:38.259Z,39.05
2023-03-17T23:37:38.468Z,38.95
2023-03-17T23:38:38.672Z,38.71
2023-03-17T23:39:38.964Z,38.10
2023-03-17T23:40:39.097Z,37.83
2023-03-17T23:41:39.303Z,38.50
2023-03-17T23:42:39.596Z,38.56
2023-03-17T23:43:39.731Z,37.99
2023-03-17T23:44:39.965Z,37.55
2023-03-17T23:45:40.205Z,37.30
2023-03-17T23:46:40.420Z,39.34
2023-03-17T23:47:40.554Z,39.26
2023-03-17T23:48:42.600Z,38.19
2023-03-17T23:49:40.744Z,38.11
2023-03-17T23:50:40.683Z,38.02
2023-03-17T23:51:40.650Z,38.56
2023-03-17T23:52:40.642Z,37.65
2023-03-17T23:53:40.612Z,38.97
2023-03-17T23:54:40.572Z,38.64
2023-03-17T23:55:40.541Z,38.64
2023-03-17T23:56:40.489Z,38.21
2023-03-17T23:57:40.454Z,37.66
2023-03-17T23:58:40.417Z,37.53
2023-03-17T23:59:40.389Z,38.27
